createdAt,value
2023-05-13T00:01:12.555Z,101488.09
2023-05-13T00:03:39.133Z,101491.63
2023-05-13T00:06:05.923Z,101507.03
2023-05-13T00:08:32.369Z,101509.22
2023-05-13T00:10:58.881Z,101508.75
2023-05-13T00:13:25.381Z,101498.84
2023-05-13T00:15:52.035Z,101486.09
2023-05-13T00:18:18.662Z,101496.72
2023-05-13T00:20:45.307Z,101502.53
2023-05-13T00:23:11.814Z,101500.50
2023-05-13T00:25:38.322Z,101503.63
2023-05-13T00:28:05.103Z,101505.31
2023-05-13T00:30:31.458Z,101519.06
2023-05-13T00:32:58.785Z,101513.97
2023-05-13T00:35:25.280Z,101516.41
2023-05-13T00:37:52.167Z,101495.44
2023-05-13T00:40:24.330Z,101524.72
2023-05-13T00:42:51.631Z,101510.91
2023-05-13T00:45:18.516Z,101537.00
2023-05-13T00:47:45.445Z,101524.25
2023-05-13T00:50:12.160Z,101510.47
2023-05-13T00:52:40.614Z,101530.13
2023-05-13T00:55:08.509Z,101531.84
2023-05-13T00:57:36.083Z,101530.13
2023-05-13T01:00:05.855Z,101502.06
2023-05-13T01:02:39.549Z,101529.56
2023-05-13T01:05:41.301Z,101530.72
2023-05-13T01:08:32.008Z,101536.47
2023-05-13T01:11:14.303Z,101528.78
2023-05-13T01:13:43.510Z,101544.31
2023-05-13T01:16:19.137Z,101524.75
2023-05-13T01:18:52.463Z,101531.00
2023-05-13T01:21:29.278Z,101534.34
2023-05-13T01:23:56.163Z,101556.13
2023-05-13T01:26:24.320Z,101545.41
2023-05-13T01:28:51.230Z,101560.69
2023-05-13T01:31:19.411Z,101559.34
2023-05-13T01:33:47.512Z,101550.09
2023-05-13T01:51:45.723Z,101551.38
2023-05-13T01:54:12.172Z,101569.03
2023-05-13T01:56:39.022Z,101551.34
2023-05-13T01:59:05.530Z,101559.50
2023-05-13T02:01:32.129Z,101570.91
2023-05-13T02:04:00.138Z,101556.69
2023-05-13T02:06:28.005Z,101552.09
2023-05-13T02:08:54.815Z,101546.16
2023-05-13T02:11:21.885Z,101563.38
2023-05-13T02:13:48.465Z,101552.59
2023-05-13T02:16:17.518Z,101562.72
2023-05-13T02:18:44.601Z,101572.41
2023-05-13T02:21:11.137Z,101559.94
2023-05-13T02:23:37.606Z,101562.94
2023-05-13T02:26:04.085Z,101552.19
2023-05-13T02:28:30.566Z,101560.69
2023-05-13T02:30:56.967Z,101563.13
2023-05-13T02:33:23.525Z,101565.75
2023-05-13T02:35:50.381Z,101560.78
2023-05-13T02:38:16.798Z,101571.13
2023-05-13T02:40:43.234Z,101555.53
2023-05-13T02:43:09.718Z,101562.72
2023-05-13T02:45:36.198Z,101568.44
2023-05-13T02:48:02.790Z,101562.09
2023-05-13T02:50:29.306Z,101561.03
2023-05-13T02:52:55.771Z,101559.47
2023-05-13T02:55:22.317Z,101563.16
2023-05-13T02:57:48.896Z,101568.84
2023-05-13T03:00:15.948Z,101579.75
2023-05-13T03:02:42.466Z,101567.88
2023-05-13T03:05:09.503Z,101565.91
2023-05-13T03:07:35.973Z,101579.75
2023-05-13T03:10:04.963Z,101565.72
2023-05-13T03:12:31.504Z,101585.50
2023-05-13T03:14:57.980Z,101571.28
2023-05-13T03:17:25.499Z,101574.31
2023-05-13T03:19:52.048Z,101567.41
2023-05-13T03:22:18.613Z,101573.66
2023-05-13T03:24:45.318Z,101580.44
2023-05-13T03:27:11.789Z,101579.03
2023-05-13T03:29:38.310Z,101570.44
2023-05-13T03:32:06.566Z,101587.97
2023-05-13T03:34:33.559Z,101598.41
2023-05-13T03:36:59.983Z,101585.63
2023-05-13T03:39:26.549Z,101599.16
2023-05-13T03:41:52.983Z,101588.50
2023-05-13T03:44:19.466Z,101589.22
2023-05-13T03:46:45.932Z,101584.81
2023-05-13T03:49:12.487Z,101576.66
2023-05-13T03:51:39.159Z,101584.16
2023-05-13T03:54:05.697Z,101596.56
2023-05-13T03:56:32.166Z,101590.31
2023-05-13T03:58:58.594Z,101592.03
2023-05-13T04:01:25.082Z,101597.53
2023-05-13T04:03:51.685Z,101586.44
2023-05-13T04:06:18.182Z,101608.84
2023-05-13T04:15:31.869Z,101610.69
2023-05-13T04:17:58.857Z,101618.38
2023-05-13T04:20:25.861Z,101617.91
2023-05-13T04:22:52.579Z,101624.88
2023-05-13T04:25:19.066Z,101636.34
2023-05-13T04:27:47.587Z,101629.28
2023-05-13T04:34:19.510Z,101610.41
2023-05-13T04:36:46.637Z,101635.16
2023-05-13T04:39:13.114Z,101635.00
2023-05-13T04:41:39.543Z,101639.94
2023-05-13T04:44:07.114Z,101637.72
2023-05-13T04:46:33.585Z,101630.88
2023-05-13T04:49:00.192Z,101649.63
2023-05-13T04:51:26.732Z,101649.31
2023-05-13T04:53:53.711Z,101650.06
2023-05-13T04:56:20.749Z,101660.09
2023-05-13T04:58:47.213Z,101658.84
2023-05-13T05:01:13.707Z,101651.81
2023-05-13T05:03:40.369Z,101644.00
2023-05-13T05:06:07.038Z,101653.06
2023-05-13T05:08:33.483Z,101663.25
2023-05-13T05:11:01.723Z,101660.94
2023-05-13T05:13:28.187Z,101670.53
2023-05-13T05:15:54.738Z,101666.22
2023-05-13T05:18:21.263Z,101635.09
2023-05-13T05:20:47.802Z,101667.25
2023-05-13T05:23:14.354Z,101654.72
2023-05-13T05:25:40.896Z,101648.19
2023-05-13T05:28:09.321Z,101654.75
2023-05-13T05:30:39.919Z,101677.03
2023-05-13T05:33:08.000Z,101643.00
2023-05-13T05:35:37.335Z,101672.19
2023-05-13T05:38:08.447Z,101684.38
2023-05-13T05:40:39.009Z,101663.69
2023-05-13T05:43:05.498Z,101673.06
2023-05-13T05:45:31.980Z,101690.19
2023-05-13T05:47:58.503Z,101689.00
2023-05-13T05:50:24.952Z,101669.94
2023-05-13T05:52:51.468Z,101674.63
2023-05-13T05:55:18.024Z,101678.53
2023-05-13T05:57:44.443Z,101690.97
2023-05-13T06:00:12.143Z,101688.88
2023-05-13T06:02:57.360Z,101697.56
2023-05-13T06:05:23.895Z,101702.69
2023-05-13T06:07:50.451Z,101682.88
2023-05-13T06:10:17.090Z,101689.78
2023-05-13T06:12:43.859Z,101683.16
2023-05-13T06:15:11.019Z,101701.31
2023-05-13T06:17:38.446Z,101671.53
2023-05-13T06:20:05.995Z,101675.03
2023-05-13T06:22:32.482Z,101683.97
2023-05-13T06:24:58.949Z,101686.25
2023-05-13T06:27:25.676Z,101698.25
2023-05-13T06:29:52.126Z,101686.63
2023-05-13T06:32:18.670Z,101682.13
2023-05-13T06:34:45.911Z,101658.66
2023-05-13T06:37:13.689Z,101685.84
2023-05-13T06:39:40.663Z,101687.91
2023-05-13T06:42:07.250Z,101699.72
2023-05-13T06:44:33.741Z,101695.41
2023-05-13T06:47:00.899Z,101697.97
2023-05-13T06:49:27.371Z,101691.31
2023-05-13T06:51:53.967Z,101703.19
2023-05-13T06:54:20.411Z,101691.44
2023-05-13T06:56:46.967Z,101685.03
2023-05-13T07:03:01.003Z,101679.16
2023-05-13T07:05:27.476Z,101672.88
2023-05-13T07:07:57.029Z,101682.06
2023-05-13T07:10:25.057Z,101684.34
2023-05-13T07:12:51.736Z,101679.38
2023-05-13T07:15:18.212Z,101666.75
2023-05-13T07:17:44.743Z,101674.31
2023-05-13T07:20:11.546Z,101674.31
2023-05-13T07:22:37.989Z,101674.84
2023-05-13T07:25:04.825Z,101646.66
2023-05-13T07:27:31.417Z,101665.66
2023-05-13T07:29:58.101Z,101661.13
2023-05-13T07:32:24.605Z,101666.66
2023-05-13T07:34:51.177Z,101664.81
2023-05-13T07:37:17.682Z,101663.47
2023-05-13T07:39:44.148Z,101648.13
2023-05-13T07:42:23.289Z,101628.53
2023-05-13T07:44:50.069Z,101628.59
2023-05-13T07:47:16.738Z,101640.38
2023-05-13T07:49:43.263Z,101649.72
2023-05-13T07:52:09.920Z,101638.25
2023-05-13T07:54:36.405Z,101648.53
2023-05-13T07:57:05.268Z,101642.34
2023-05-13T07:59:32.021Z,101617.03
2023-05-13T08:01:58.589Z,101636.78
2023-05-13T08:04:25.424Z,101634.41
2023-05-13T08:06:51.966Z,101643.22
2023-05-13T08:09:18.561Z,101627.00
2023-05-13T08:11:45.102Z,101641.88
2023-05-13T08:14:11.556Z,101636.47
2023-05-13T08:16:38.147Z,101624.88
2023-05-13T08:19:04.985Z,101639.00
2023-05-13T08:21:32.634Z,101619.31
2023-05-13T08:23:59.081Z,101632.72
2023-05-13T08:26:25.530Z,101640.09
2023-05-13T08:28:54.646Z,101633.31
2023-05-13T08:31:21.799Z,101624.88
2023-05-13T08:33:48.719Z,101640.75
2023-05-13T08:36:15.677Z,101632.44
2023-05-13T08:38:43.517Z,101649.59
2023-05-13T08:41:13.925Z,101624.88
2023-05-13T08:43:41.022Z,101639.22
2023-05-13T08:46:11.991Z,101655.16
2023-05-13T08:48:40.983Z,101629.22
2023-05-13T08:51:10.800Z,101632.09
2023-05-13T08:53:40.000Z,101627.06
2023-05-13T08:56:09.283Z,101644.66
2023-05-13T08:58:35.921Z,101631.81
2023-05-13T09:01:03.082Z,101634.94
2023-05-13T09:03:29.581Z,101642.69
2023-05-13T09:05:56.407Z,101627.47
2023-05-13T09:08:22.826Z,101624.88
2023-05-13T09:10:49.450Z,101638.28
2023-05-13T09:13:17.334Z,101636.28
2023-05-13T09:15:44.920Z,101629.53
2023-05-13T09:18:12.980Z,101630.63
2023-05-13T09:20:39.641Z,101629.47
2023-05-13T09:23:08.378Z,101632.84
2023-05-13T09:25:36.982Z,101630.50
2023-05-13T09:28:05.465Z,101637.34
2023-05-13T09:30:40.619Z,101610.56
2023-05-13T09:33:11.996Z,101648.81
2023-05-13T09:35:43.913Z,101620.66
2023-05-13T09:38:26.946Z,101627.63
2023-05-13T09:40:58.143Z,101620.50
2023-05-13T09:43:34.159Z,101634.97
2023-05-13T09:46:05.170Z,101631.53
2023-05-13T09:48:33.301Z,101647.75
2023-05-13T09:51:00.171Z,101638.19
2023-05-13T09:53:28.098Z,101641.41
2023-05-13T09:55:56.730Z,101641.22
2023-05-13T09:58:24.566Z,101616.66
2023-05-13T10:00:52.075Z,101604.50
2023-05-13T10:03:18.788Z,101598.84
2023-05-13T10:05:45.738Z,101598.50
2023-05-13T10:08:13.944Z,101620.69
2023-05-13T10:10:51.352Z,101599.16
2023-05-13T10:13:20.107Z,101590.59
2023-05-13T10:15:52.608Z,101588.63
2023-05-13T10:18:20.402Z,101602.03
2023-05-13T10:20:54.306Z,101597.31
2023-05-13T10:23:22.688Z,101603.66
2023-05-13T10:25:50.768Z,101606.81
2023-05-13T10:28:17.801Z,101614.88
2023-05-13T10:30:45.065Z,101609.94
2023-05-13T10:33:12.133Z,101598.09
2023-05-13T10:35:43.309Z,101598.31
2023-05-13T10:38:40.909Z,101600.63
2023-05-13T10:41:45.082Z,101607.63
2023-05-13T10:44:12.467Z,101594.22
2023-05-13T10:46:39.818Z,101594.59
2023-05-13T10:49:14.689Z,101601.88
2023-05-13T10:51:45.199Z,101597.59
2023-05-13T10:54:22.478Z,101616.56
2023-05-13T10:56:59.304Z,101593.19
2023-05-13T10:59:32.647Z,101593.09
2023-05-13T11:02:20.940Z,101576.88
2023-05-13T11:05:00.885Z,101598.75
2023-05-13T11:07:30.803Z,101595.72
2023-05-13T11:09:57.306Z,101599.63
2023-05-13T11:12:23.772Z,101597.31
2023-05-13T11:14:51.822Z,101594.84
2023-05-13T11:17:20.694Z,101610.81
2023-05-13T11:19:49.977Z,101592.25
2023-05-13T11:22:20.468Z,101597.75
2023-05-13T11:25:12.873Z,101595.69
2023-05-13T11:27:41.454Z,101590.22
2023-05-13T11:30:21.708Z,101592.81
2023-05-13T11:32:51.558Z,101597.13
2023-05-13T11:35:32.592Z,101583.75
2023-05-13T11:38:01.021Z,101574.91
2023-05-13T11:40:32.788Z,101589.00
2023-05-13T11:43:00.689Z,101584.84
2023-05-13T11:45:28.552Z,101587.56
2023-05-13T11:47:56.397Z,101582.72
2023-05-13T11:50:30.819Z,101582.13
2023-05-13T11:52:59.409Z,101574.47
2023-05-13T11:55:27.394Z,101576.28
2023-05-13T11:57:54.344Z,101571.59
2023-05-13T12:00:31.319Z,101578.22
2023-05-13T12:03:01.191Z,101574.28
2023-05-13T12:05:28.115Z,101584.66
2023-05-13T12:07:58.654Z,101576.44
2023-05-13T12:10:26.463Z,101558.38
2023-05-13T12:12:53.385Z,101562.56
2023-05-13T12:15:21.622Z,101568.84
2023-05-13T12:17:49.446Z,101553.38
2023-05-13T12:20:18.056Z,101564.19
2023-05-13T12:22:44.491Z,101582.78
2023-05-13T12:25:46.689Z,101577.53
2023-05-13T12:28:23.206Z,101567.59
2023-05-13T12:30:58.310Z,101548.59
2023-05-13T12:33:32.817Z,101553.44
2023-05-13T12:36:15.414Z,101581.72
2023-05-13T12:39:00.201Z,101570.28
2023-05-13T12:41:31.617Z,101550.44
2023-05-13T12:43:59.703Z,101566.13
2023-05-13T12:46:26.935Z,101566.78
2023-05-13T12:48:56.435Z,101564.69
2023-05-13T12:51:23.398Z,101561.78
2023-05-13T12:53:49.942Z,101552.50
2023-05-13T12:56:16.363Z,101545.66
2023-05-13T12:58:42.967Z,101561.78
2023-05-13T13:01:09.489Z,101563.50
2023-05-13T13:03:36.173Z,101561.28
2023-05-13T13:06:02.811Z,101546.28
2023-05-13T13:08:30.544Z,101572.72
2023-05-13T13:10:58.283Z,101572.19
2023-05-13T13:13:24.744Z,101547.88
2023-05-13T13:15:54.620Z,101550.00
2023-05-13T13:18:21.301Z,101540.50
2023-05-13T13:20:47.723Z,101553.44
2023-05-13T13:23:14.172Z,101543.91
2023-05-13T13:25:40.738Z,101534.19
2023-05-13T13:28:07.231Z,101537.63
2023-05-13T13:30:33.833Z,101545.59
2023-05-13T13:33:00.357Z,101550.22
2023-05-13T13:35:26.948Z,101545.94
2023-05-13T13:37:54.467Z,101541.00
2023-05-13T13:40:21.326Z,101545.44
2023-05-13T13:42:50.761Z,101534.19
2023-05-13T13:45:18.087Z,101538.63
2023-05-13T13:47:45.076Z,101546.41
2023-05-13T13:50:11.726Z,101538.97
2023-05-13T13:52:38.115Z,101552.25
2023-05-13T13:55:04.956Z,101522.59
2023-05-13T13:57:31.423Z,101533.50
2023-05-13T13:59:57.889Z,101517.47
2023-05-13T14:02:24.450Z,101527.16
2023-05-13T14:04:51.000Z,101533.19
2023-05-13T14:07:17.491Z,101501.59
2023-05-13T14:09:44.015Z,101527.19
2023-05-13T14:12:10.473Z,101503.47
2023-05-13T14:14:36.934Z,101523.53
2023-05-13T14:17:03.589Z,101524.75
2023-05-13T14:19:30.084Z,101514.31
2023-05-13T14:21:56.576Z,101505.13
2023-05-13T14:24:23.391Z,101515.25
2023-05-13T14:26:49.877Z,101514.44
2023-05-13T14:29:16.307Z,101514.97
2023-05-13T14:31:42.815Z,101502.09
2023-05-13T14:34:09.267Z,101514.22
2023-05-13T14:36:36.026Z,101509.13
2023-05-13T14:39:02.356Z,101519.78
2023-05-13T14:41:29.576Z,101497.28
2023-05-13T14:43:56.017Z,101487.13
2023-05-13T14:46:22.479Z,101509.28
2023-05-13T14:48:48.967Z,101496.13
2023-05-13T14:51:15.562Z,101499.06
2023-05-13T14:53:42.448Z,101498.03
2023-05-13T14:56:08.897Z,101502.28
2023-05-13T14:58:35.402Z,101508.41
2023-05-13T15:01:02.050Z,101502.63
2023-05-13T15:03:28.619Z,101496.31
2023-05-13T15:05:56.111Z,101486.75
2023-05-13T15:08:22.719Z,101495.81
2023-05-13T15:10:49.137Z,101495.97
2023-05-13T15:13:15.843Z,101487.47
2023-05-13T15:15:42.348Z,101493.06
2023-05-13T15:18:08.811Z,101485.03
2023-05-13T15:20:35.334Z,101496.66
2023-05-13T15:23:01.785Z,101497.25
2023-05-13T15:25:28.255Z,101491.41
2023-05-13T15:27:54.725Z,101469.25
2023-05-13T15:30:21.404Z,101493.56
2023-05-13T15:32:48.019Z,101480.63
2023-05-13T15:35:15.418Z,101493.09
2023-05-13T15:37:42.745Z,101480.28
2023-05-13T15:40:09.778Z,101478.59
2023-05-13T15:42:36.854Z,101488.81
2023-05-13T15:45:03.872Z,101475.81
2023-05-13T15:47:33.177Z,101470.75
2023-05-13T15:50:00.007Z,101469.38
2023-05-13T15:52:27.734Z,101443.78
2023-05-13T15:54:54.175Z,101455.56
2023-05-13T15:57:20.765Z,101449.69
2023-05-13T15:59:47.114Z,101476.97
2023-05-13T16:02:13.668Z,101479.56
2023-05-13T16:04:40.293Z,101494.66
2023-05-13T16:07:11.143Z,101492.97
2023-05-13T16:09:43.262Z,101474.59
2023-05-13T16:12:10.156Z,101453.13
2023-05-13T16:14:45.953Z,101466.66
2023-05-13T16:17:23.290Z,101467.69
2023-05-13T16:19:53.143Z,101455.22
2023-05-13T16:22:33.862Z,101479.44
2023-05-13T16:25:02.337Z,101467.72
2023-05-13T16:27:29.451Z,101484.81
2023-05-13T16:29:58.296Z,101481.69
2023-05-13T16:32:25.512Z,101510.84
2023-05-13T16:34:53.645Z,101471.72
2023-05-13T16:37:20.399Z,101472.13
2023-05-13T16:39:47.241Z,101502.75
2023-05-13T16:42:13.851Z,101497.16
2023-05-13T16:44:40.777Z,101511.81
2023-05-13T16:47:08.858Z,101527.81
2023-05-13T16:49:36.573Z,101491.47
2023-05-13T16:52:04.356Z,101501.59
2023-05-13T16:54:31.350Z,101533.50
2023-05-13T16:57:05.402Z,101534.09
2023-05-13T16:59:31.876Z,101536.00
2023-05-13T17:02:00.009Z,101514.03
2023-05-13T17:04:28.387Z,101523.91
2023-05-13T17:06:59.262Z,101535.66
2023-05-13T17:09:26.174Z,101515.03
2023-05-13T17:11:52.702Z,101554.69
2023-05-13T17:14:19.311Z,101529.63
2023-05-13T17:16:56.915Z,101529.63
2023-05-13T17:19:30.406Z,101538.72
2023-05-13T17:21:59.414Z,101531.88
2023-05-13T17:24:29.313Z,101509.34
2023-05-13T17:26:56.695Z,101523.75
2023-05-13T17:29:25.455Z,101526.16
2023-05-13T17:32:19.268Z,101541.03
2023-05-13T17:35:17.516Z,101507.63
2023-05-13T17:38:22.688Z,101549.63
2023-05-13T17:44:44.832Z,101518.91
2023-05-13T17:47:04.223Z,101514.91
2023-05-13T17:53:58.610Z,101548.34
2023-05-13T17:56:35.293Z,101542.63
2023-05-13T17:59:19.651Z,101507.63
2023-05-13T18:02:13.120Z,101503.78
2023-05-13T18:04:41.283Z,101518.91
2023-05-13T18:07:13.747Z,101537.59
2023-05-13T18:09:41.938Z,101515.78
2023-05-13T18:12:18.503Z,101517.19
2023-05-13T18:14:54.963Z,101550.88
2023-05-13T18:17:32.786Z,101518.19
2023-05-13T18:20:07.846Z,101539.59
2023-05-13T18:22:35.688Z,101545.44
2023-05-13T18:25:15.554Z,101524.75
2023-05-13T18:30:56.027Z,101525.00
2023-05-13T18:33:28.099Z,101551.13
2023-05-13T18:35:59.994Z,101534.94
2023-05-13T18:38:30.050Z,101564.94
2023-05-13T18:41:20.253Z,101540.66
2023-05-13T18:43:57.161Z,101565.09
2023-05-13T18:46:26.953Z,101564.38
2023-05-13T18:49:10.732Z,101545.81
2023-05-13T18:51:46.750Z,101550.88
2023-05-13T18:54:14.895Z,101547.44
2023-05-13T18:56:45.161Z,101553.81
2023-05-13T18:59:19.014Z,101549.78
2023-05-13T19:02:00.097Z,101554.50
2023-05-13T19:04:27.141Z,101549.84
2023-05-13T19:07:00.519Z,101583.28
2023-05-13T19:09:29.392Z,101583.38
2023-05-13T19:12:05.271Z,101592.50
2023-05-13T19:14:32.143Z,101574.69
2023-05-13T19:17:13.128Z,101564.38
2023-05-13T19:19:42.422Z,101572.97
2023-05-13T19:22:18.048Z,101588.09
2023-05-13T19:24:52.984Z,101567.44
2023-05-13T19:27:20.037Z,101580.56
2023-05-13T19:29:49.464Z,101555.69
2023-05-13T19:32:18.872Z,101565.72
2023-05-13T19:34:47.541Z,101612.56
2023-05-13T19:37:20.505Z,101595.34
2023-05-13T19:39:50.652Z,101563.91
2023-05-13T19:42:20.784Z,101582.28
2023-05-13T19:44:56.108Z,101593.63
2023-05-13T19:47:23.041Z,101566.13
2023-05-13T19:53:37.094Z,101602.13
2023-05-13T19:56:12.776Z,101560.00
2023-05-13T19:58:40.184Z,101577.94
2023-05-13T20:01:15.143Z,101594.66
2023-05-13T20:03:52.267Z,101571.63
2023-05-13T20:06:27.378Z,101563.38
2023-05-13T20:08:58.851Z,101579.06
2023-05-13T20:11:28.342Z,101569.53
2023-05-13T20:14:03.593Z,101572.34
2023-05-13T20:16:36.162Z,101576.25
2023-05-13T20:19:05.637Z,101597.16
2023-05-13T20:21:34.853Z,101587.31
2023-05-13T20:24:01.686Z,101580.66
2023-05-13T20:26:31.761Z,101606.41
2023-05-13T20:28:58.868Z,101582.09
2023-05-13T20:31:28.317Z,101567.00
2023-05-13T20:34:10.932Z,101586.38
2023-05-13T20:36:49.862Z,101597.63
2023-05-13T20:39:28.176Z,101572.22
2023-05-13T20:42:00.179Z,101565.63
2023-05-13T20:54:27.868Z,101573.66
2023-05-13T20:56:54.492Z,101557.94
2023-05-13T20:59:21.021Z,101605.50
2023-05-13T21:01:57.219Z,101574.19
2023-05-13T21:04:26.345Z,101586.09
2023-05-13T21:06:53.034Z,101572.78
2023-05-13T21:09:19.546Z,101576.22
2023-05-13T21:11:46.055Z,101595.50
2023-05-13T21:14:12.711Z,101597.44
2023-05-13T21:16:39.154Z,101577.91
2023-05-13T21:19:21.520Z,101581.75
2023-05-13T21:22:06.709Z,101562.63
2023-05-13T21:27:17.376Z,101551.28
2023-05-13T21:29:58.084Z,101594.78
2023-05-13T21:32:24.793Z,101553.31
2023-05-13T21:34:54.647Z,101548.66
2023-05-13T21:37:21.473Z,101551.84
2023-05-13T21:39:47.991Z,101596.38
2023-05-13T21:42:14.617Z,101590.59
2023-05-13T21:44:41.551Z,101551.00
2023-05-13T21:47:08.288Z,101578.19
2023-05-13T21:49:34.667Z,101598.16
2023-05-13T21:52:01.174Z,101567.25
2023-05-13T21:54:27.670Z,101579.97
2023-05-13T21:56:54.202Z,101556.38
2023-05-13T21:59:20.719Z,101559.75
2023-05-13T22:01:47.239Z,101580.66
2023-05-13T22:04:13.723Z,101580.50
2023-05-13T22:06:40.157Z,101580.53
2023-05-13T22:09:06.964Z,101590.22
2023-05-13T22:11:33.334Z,101595.16
2023-05-13T22:14:00.346Z,101581.00
2023-05-13T22:16:26.876Z,101583.34
2023-05-13T22:18:55.824Z,101588.91
2023-05-13T22:21:22.339Z,101585.47
2023-05-13T22:23:49.014Z,101580.31
2023-05-13T22:26:15.393Z,101593.59
2023-05-13T22:28:41.866Z,101573.66
2023-05-13T22:31:08.415Z,101578.63
2023-05-13T22:33:34.860Z,101579.50
2023-05-13T22:36:01.301Z,101585.06
2023-05-13T22:38:27.728Z,101572.47
2023-05-13T22:40:54.169Z,101566.47
2023-05-13T22:43:20.873Z,101576.59
2023-05-13T22:45:47.415Z,101569.81
2023-05-13T22:48:13.852Z,101575.09
2023-05-13T22:50:40.406Z,101574.78
2023-05-13T22:53:06.865Z,101576.72
2023-05-13T22:55:33.838Z,101573.06
2023-05-13T22:58:00.331Z,101567.47
2023-05-13T23:00:26.785Z,101558.09
2023-05-13T23:02:53.318Z,101564.44
2023-05-13T23:05:19.912Z,101565.28
2023-05-13T23:07:46.370Z,101566.78
2023-05-13T23:10:12.805Z,101564.03
2023-05-13T23:12:39.276Z,101566.13
2023-05-13T23:15:07.087Z,101564.22
2023-05-13T23:17:33.674Z,101562.28
2023-05-13T23:20:00.453Z,101563.34
2023-05-13T23:22:26.793Z,101572.69
2023-05-13T23:24:53.233Z,101549.16
2023-05-13T23:27:19.670Z,101548.19
2023-05-13T23:29:46.278Z,101562.38
2023-05-13T23:32:12.730Z,101567.25
2023-05-13T23:34:39.296Z,101561.22
2023-05-13T23:37:05.877Z,101552.31
2023-05-13T23:39:32.377Z,101552.31
2023-05-13T23:41:58.848Z,101531.75
2023-05-13T23:44:25.836Z,101551.97
2023-05-13T23:46:52.656Z,101543.56
2023-05-13T23:49:19.055Z,101563.38
2023-05-13T23:51:45.511Z,101552.78
2023-05-13T23:54:12.013Z,101556.94
2023-05-13T23:56:38.495Z,101548.72
2023-05-13T23:59:05.062Z,101552.00
